sensor_id;sensor_type;location;lat;lon;timestamp;pressure;altitude;pressure_sealevel;temperature;humidity
22651;BME280;11492;42.646;23.400;2023-02-04T00:00:44;94859.94;;;3.45;68.19
22651;BME280;11492;42.646;23.400;2023-02-04T00:03:10;94867.50;;;3.37;69.74
22651;BME280;11492;42.646;23.400;2023-02-04T00:05:36;94867.50;;;3.37;69.74
22651;BME280;11492;42.646;23.400;2023-02-04T00:08:01;94854.06;;;3.35;69.71
22651;BME280;11492;42.646;23.400;2023-02-04T00:10:28;94855.16;;;3.32;70.50
22651;BME280;11492;42.646;23.400;2023-02-04T00:12:53;94846.59;;;3.24;69.96
22651;BME280;11492;42.646;23.400;2023-02-04T00:15:18;94847.00;;;3.20;70.96
22651;BME280;11492;42.646;23.400;2023-02-04T00:17:44;94846.34;;;3.18;71.64
22651;BME280;11492;42.646;23.400;2023-02-04T00:20:11;94836.94;;;3.18;70.92
22651;BME280;11492;42.646;23.400;2023-02-04T00:22:37;94830.50;;;3.14;72.18
22651;BME280;11492;42.646;23.400;2023-02-04T00:25:02;94832.94;;;3.16;71.70
22651;BME280;11492;42.646;23.400;2023-02-04T00:27:28;94836.81;;;3.10;71.92
22651;BME280;11492;42.646;23.400;2023-02-04T00:29:53;94837.22;;;3.15;71.76
22651;BME280;11492;42.646;23.400;2023-02-04T00:32:19;94827.31;;;3.12;72.38
22651;BME280;11492;42.646;23.400;2023-02-04T00:34:44;94835.50;;;3.16;72.12
22651;BME280;11492;42.646;23.400;2023-02-04T00:37:10;94820.88;;;3.08;72.05
22651;BME280;11492;42.646;23.400;2023-02-04T00:39:35;94835.63;;;3.05;72.27
22651;BME280;11492;42.646;23.400;2023-02-04T00:42:00;94830.84;;;3.02;71.63
22651;BME280;11492;42.646;23.400;2023-02-04T00:44:26;94828.13;;;3.03;71.65
22651;BME280;11492;42.646;23.400;2023-02-04T00:46:51;94836.19;;;2.99;72.00
22651;BME280;11492;42.646;23.400;2023-02-04T00:49:17;94829.91;;;2.94;71.53
22651;BME280;11492;42.646;23.400;2023-02-04T00:51:42;94816.66;;;2.90;72.46
22651;BME280;11492;42.646;23.400;2023-02-04T00:54:10;94817.47;;;2.91;72.07
22651;BME280;11492;42.646;23.400;2023-02-04T00:56:36;94816.50;;;2.92;72.41
22651;BME280;11492;42.646;23.400;2023-02-04T00:59:01;94824.41;;;2.89;72.40
22651;BME280;11492;42.646;23.400;2023-02-04T01:01:27;94828.16;;;2.94;72.64
22651;BME280;11492;42.646;23.400;2023-02-04T01:03:53;94809.13;;;2.89;72.77
22651;BME280;11492;42.646;23.400;2023-02-04T01:06:19;94812.47;;;2.89;73.35
22651;BME280;11492;42.646;23.400;2023-02-04T01:08:44;94799.22;;;2.86;72.87
22651;BME280;11492;42.646;23.400;2023-02-04T01:11:09;94793.19;;;2.87;72.97
22651;BME280;11492;42.646;23.400;2023-02-04T01:13:35;94784.63;;;2.78;72.81
22651;BME280;11492;42.646;23.400;2023-02-04T01:16:00;94785.72;;;2.76;73.44
22651;BME280;11492;42.646;23.400;2023-02-04T01:18:25;94775.78;;;2.73;73.22
22651;BME280;11492;42.646;23.400;2023-02-04T01:20:51;94781.81;;;2.72;72.74
22651;BME280;11492;42.646;23.400;2023-02-04T01:23:16;94777.31;;;2.57;72.98
22651;BME280;11492;42.646;23.400;2023-02-04T01:25:42;94772.22;;;2.47;73.69
22651;BME280;11492;42.646;23.400;2023-02-04T01:28:07;94773.72;;;2.41;73.86
22651;BME280;11492;42.646;23.400;2023-02-04T01:30:33;94756.31;;;2.27;74.94
22651;BME280;11492;42.646;23.400;2023-02-04T01:32:58;94760.34;;;2.29;74.60
22651;BME280;11492;42.646;23.400;2023-02-04T01:35:23;94759.94;;;2.34;74.33
22651;BME280;11492;42.646;23.400;2023-02-04T01:37:49;94744.38;;;2.27;74.53
22651;BME280;11492;42.646;23.400;2023-02-04T01:40:15;94744.81;;;2.23;73.87
22651;BME280;11492;42.646;23.400;2023-02-04T01:42:40;94744.81;;;2.23;73.72
22651;BME280;11492;42.646;23.400;2023-02-04T01:45:06;94738.91;;;2.23;73.78
22651;BME280;11492;42.646;23.400;2023-02-04T01:47:32;94733.28;;;2.28;74.18
22651;BME280;11492;42.646;23.400;2023-02-04T01:49:58;94722.41;;;2.17;73.38
22651;BME280;11492;42.646;23.400;2023-02-04T01:52:24;94727.09;;;2.22;73.24
22651;BME280;11492;42.646;23.400;2023-02-04T01:54:50;94744.66;;;2.24;73.82
22651;BME280;11492;42.646;23.400;2023-02-04T01:57:17;94720.56;;;2.19;73.88
22651;BME280;11492;42.646;23.400;2023-02-04T01:59:46;94735.28;;;2.25;73.44
22651;BME280;11492;42.646;23.400;2023-02-04T02:02:51;94734.59;;;2.32;73.75
22651;BME280;11492;42.646;23.400;2023-02-04T02:05:22;94727.38;;;2.28;72.99
22651;BME280;11492;42.646;23.400;2023-02-04T02:07:50;94714.50;;;2.39;72.63
22651;BME280;11492;42.646;23.400;2023-02-04T02:10:17;94711.66;;;2.42;73.71
22651;BME280;11492;42.646;23.400;2023-02-04T02:12:43;94721.44;;;2.46;73.05
22651;BME280;11492;42.646;23.400;2023-02-04T02:15:10;94726.75;;;2.52;72.61
22651;BME280;11492;42.646;23.400;2023-02-04T02:17:35;94701.03;;;2.55;73.20
22651;BME280;11492;42.646;23.400;2023-02-04T02:20:01;94702.63;;;2.56;72.80
22651;BME280;11492;42.646;23.400;2023-02-04T02:23:01;94701.13;;;2.63;72.84
22651;BME280;11492;42.646;23.400;2023-02-04T02:25:29;94701.66;;;2.67;72.19
22651;BME280;11492;42.646;23.400;2023-02-04T02:27:54;94698.03;;;2.69;72.58
22651;BME280;11492;42.646;23.400;2023-02-04T02:30:21;94678.00;;;2.74;71.27
22651;BME280;11492;42.646;23.400;2023-02-04T02:32:48;94670.91;;;2.77;71.34
22651;BME280;11492;42.646;23.400;2023-02-04T02:35:14;94661.66;;;2.76;71.42
22651;BME280;11492;42.646;23.400;2023-02-04T02:37:41;94644.47;;;2.78;70.67
22651;BME280;11492;42.646;23.400;2023-02-04T02:40:07;94638.31;;;2.81;71.32
22651;BME280;11492;42.646;23.400;2023-02-04T02:42:33;94623.81;;;2.81;70.55
22651;BME280;11492;42.646;23.400;2023-02-04T02:45:01;94622.34;;;2.79;70.05
22651;BME280;11492;42.646;23.400;2023-02-04T02:47:27;94627.22;;;2.72;70.21
22651;BME280;11492;42.646;23.400;2023-02-04T02:49:53;94610.75;;;2.67;71.28
22651;BME280;11492;42.646;23.400;2023-02-04T02:52:19;94598.53;;;2.71;71.16
22651;BME280;11492;42.646;23.400;2023-02-04T02:54:45;94609.66;;;2.70;70.88
22651;BME280;11492;42.646;23.400;2023-02-04T02:57:15;94613.97;;;2.69;71.15
22651;BME280;11492;42.646;23.400;2023-02-04T02:59:42;94605.56;;;2.59;70.60
22651;BME280;11492;42.646;23.400;2023-02-04T03:02:10;94615.31;;;2.64;71.54
22651;BME280;11492;42.646;23.400;2023-02-04T03:04:40;94622.44;;;2.60;71.29
22651;BME280;11492;42.646;23.400;2023-02-04T03:07:07;94631.03;;;2.59;71.25
22651;BME280;11492;42.646;23.400;2023-02-04T03:09:33;94627.16;;;2.55;70.73
22651;BME280;11492;42.646;23.400;2023-02-04T03:12:00;94623.66;;;2.56;70.41
22651;BME280;11492;42.646;23.400;2023-02-04T03:14:26;94623.03;;;2.54;71.69
22651;BME280;11492;42.646;23.400;2023-02-04T03:16:53;94633.59;;;2.59;71.50
22651;BME280;11492;42.646;23.400;2023-02-04T03:19:20;94639.72;;;2.66;71.06
22651;BME280;11492;42.646;23.400;2023-02-04T03:21:46;94644.28;;;2.63;71.51
22651;BME280;11492;42.646;23.400;2023-02-04T03:24:11;94632.25;;;2.55;71.13
22651;BME280;11492;42.646;23.400;2023-02-04T03:26:37;94628.72;;;2.66;70.75
22651;BME280;11492;42.646;23.400;2023-02-04T03:29:06;94629.59;;;2.74;70.82
22651;BME280;11492;42.646;23.400;2023-02-04T03:31:32;94603.31;;;2.73;70.93
22651;BME280;11492;42.646;23.400;2023-02-04T03:33:57;94615.25;;;2.73;71.02
22651;BME280;11492;42.646;23.400;2023-02-04T03:36:23;94614.84;;;2.77;69.99
22651;BME280;11492;42.646;23.400;2023-02-04T03:38:48;94609.31;;;2.82;70.69
22651;BME280;11492;42.646;23.400;2023-02-04T03:41:16;94617.38;;;2.77;70.77
22651;BME280;11492;42.646;23.400;2023-02-04T03:43:41;94609.53;;;2.71;69.75
22651;BME280;11492;42.646;23.400;2023-02-04T03:46:07;94611.53;;;2.68;70.84
22651;BME280;11492;42.646;23.400;2023-02-04T03:48:32;94604.69;;;2.68;70.65
22651;BME280;11492;42.646;23.400;2023-02-04T03:50:58;94595.47;;;2.67;70.20
22651;BME280;11492;42.646;23.400;2023-02-04T03:53:23;94586.59;;;2.71;70.29
22651;BME280;11492;42.646;23.400;2023-02-04T03:55:49;94588.84;;;2.74;69.91
22651;BME280;11492;42.646;23.400;2023-02-04T03:58:14;94594.59;;;2.76;69.47
22651;BME280;11492;42.646;23.400;2023-02-04T04:00:39;94579.97;;;2.78;69.87
22651;BME280;11492;42.646;23.400;2023-02-04T04:03:05;94568.03;;;2.78;69.86
22651;BME280;11492;42.646;23.400;2023-02-04T04:05:30;94558.63;;;2.79;69.40
22651;BME280;11492;42.646;23.400;2023-02-04T04:07:56;94553.53;;;2.79;70.13
22651;BME280;11492;42.646;23.400;2023-02-04T04:10:22;94550.72;;;2.82;69.78
22651;BME280;11492;42.646;23.400;2023-02-04T04:12:47;94541.47;;;2.81;69.38
22651;BME280;11492;42.646;23.400;2023-02-04T04:15:12;94542.13;;;2.83;70.04
22651;BME280;11492;42.646;23.400;2023-02-04T04:17:38;94531.50;;;2.87;70.06
22651;BME280;11492;42.646;23.400;2023-02-04T04:20:04;94537.13;;;2.91;70.00
22651;BME280;11492;42.646;23.400;2023-02-04T04:22:30;94540.03;;;2.96;69.46
22651;BME280;11492;42.646;23.400;2023-02-04T04:24:55;94535.56;;;2.97;69.96
22651;BME280;11492;42.646;23.400;2023-02-04T04:27:20;94531.88;;;2.92;70.69
22651;BME280;11492;42.646;23.400;2023-02-04T04:29:46;94548.03;;;3.00;69.70
22651;BME280;11492;42.646;23.400;2023-02-04T04:32:11;94539.56;;;3.00;69.95
22651;BME280;11492;42.646;23.400;2023-02-04T04:34:37;94545.63;;;2.99;69.46
22651;BME280;11492;42.646;23.400;2023-02-04T04:37:02;94561.44;;;3.02;69.45
22651;BME280;11492;42.646;23.400;2023-02-04T04:39:28;94555.09;;;3.06;69.33
22651;BME280;11492;42.646;23.400;2023-02-04T04:41:53;94552.75;;;3.13;68.89
22651;BME280;11492;42.646;23.400;2023-02-04T04:44:18;94559.47;;;3.14;69.86
22651;BME280;11492;42.646;23.400;2023-02-04T04:46:44;94561.56;;;3.18;68.90
22651;BME280;11492;42.646;23.400;2023-02-04T04:49:17;94559.81;;;3.19;69.70
22651;BME280;11492;42.646;23.400;2023-02-04T04:51:42;94573.31;;;3.28;70.72
22651;BME280;11492;42.646;23.400;2023-02-04T04:54:08;94578.75;;;3.33;70.38
22651;BME280;11492;42.646;23.400;2023-02-04T04:56:33;94573.03;;;3.31;69.25
22651;BME280;11492;42.646;23.400;2023-02-04T04:58:58;94579.78;;;3.23;69.57
22651;BME280;11492;42.646;23.400;2023-02-04T05:01:24;94558.22;;;3.18;70.54
22651;BME280;11492;42.646;23.400;2023-02-04T05:03:49;94571.72;;;3.27;70.95
22651;BME280;11492;42.646;23.400;2023-02-04T05:06:15;94571.19;;;3.24;70.48
22651;BME280;11492;42.646;23.400;2023-02-04T05:08:40;94565.81;;;3.27;71.13
22651;BME280;11492;42.646;23.400;2023-02-04T05:11:06;94573.81;;;3.32;70.06
22651;BME280;11492;42.646;23.400;2023-02-04T05:13:31;94567.41;;;3.28;70.60
22651;BME280;11492;42.646;23.400;2023-02-04T05:15:57;94560.13;;;3.33;71.38
22651;BME280;11492;42.646;23.400;2023-02-04T05:18:22;94569.16;;;3.27;72.05
22651;BME280;11492;42.646;23.400;2023-02-04T05:20:48;94596.63;;;3.33;72.24
22651;BME280;11492;42.646;23.400;2023-02-04T05:23:13;94596.69;;;3.24;73.46
22651;BME280;11492;42.646;23.400;2023-02-04T05:25:39;94593.19;;;3.25;73.91
22651;BME280;11492;42.646;23.400;2023-02-04T05:28:04;94596.69;;;3.24;74.23
22651;BME280;11492;42.646;23.400;2023-02-04T05:30:30;94603.69;;;3.22;73.44
22651;BME280;11492;42.646;23.400;2023-02-04T05:32:55;94606.25;;;3.22;74.31
22651;BME280;11492;42.646;23.400;2023-02-04T05:35:21;94604.41;;;3.15;74.21
22651;BME280;11492;42.646;23.400;2023-02-04T05:37:46;94607.47;;;3.18;75.00
22651;BME280;11492;42.646;23.400;2023-02-04T05:40:12;94608.44;;;3.17;74.78
22651;BME280;11492;42.646;23.400;2023-02-04T05:42:37;94614.69;;;3.05;75.93
22651;BME280;11492;42.646;23.400;2023-02-04T05:45:03;94620.22;;;3.01;75.46
22651;BME280;11492;42.646;23.400;2023-02-04T05:47:29;94601.47;;;2.93;75.49
22651;BME280;11492;42.646;23.400;2023-02-04T05:49:54;94612.13;;;3.05;75.72
22651;BME280;11492;42.646;23.400;2023-02-04T05:52:19;94606.25;;;3.22;74.11
22651;BME280;11492;42.646;23.400;2023-02-04T05:54:45;94609.22;;;3.35;73.53
22651;BME280;11492;42.646;23.400;2023-02-04T05:57:10;94606.16;;;3.48;70.95
22651;BME280;11492;42.646;23.400;2023-02-04T05:59:36;94646.75;;;3.59;69.73
22651;BME280;11492;42.646;23.400;2023-02-04T06:02:01;94599.28;;;3.66;69.67
22651;BME280;11492;42.646;23.400;2023-02-04T06:04:26;94601.91;;;3.74;68.69
22651;BME280;11492;42.646;23.400;2023-02-04T06:06:52;94602.63;;;3.84;69.53
22651;BME280;11492;42.646;23.400;2023-02-04T06:09:17;94604.13;;;3.94;69.50
22651;BME280;11492;42.646;23.400;2023-02-04T06:11:42;94582.19;;;3.84;68.85
22651;BME280;11492;42.646;23.400;2023-02-04T06:14:08;94607.50;;;4.02;67.32
22651;BME280;11492;42.646;23.400;2023-02-04T06:16:35;94573.34;;;3.96;67.76
22651;BME280;11492;42.646;23.400;2023-02-04T06:19:00;94573.50;;;3.94;67.17
22651;BME280;11492;42.646;23.400;2023-02-04T06:21:25;94593.22;;;4.09;66.09
22651;BME280;11492;42.646;23.400;2023-02-04T06:23:51;94585.13;;;4.22;65.08
22651;BME280;11492;42.646;23.400;2023-02-04T06:26:16;94586.00;;;4.30;66.29
22651;BME280;11492;42.646;23.400;2023-02-04T06:28:42;94590.94;;;4.31;65.41
22651;BME280;11492;42.646;23.400;2023-02-04T06:31:07;94582.16;;;4.34;64.85
22651;BME280;11492;42.646;23.400;2023-02-04T06:33:34;94600.38;;;4.39;64.83
22651;BME280;11492;42.646;23.400;2023-02-04T06:36:00;94595.47;;;4.45;64.19
22651;BME280;11492;42.646;23.400;2023-02-04T06:38:25;94597.72;;;4.48;63.69
22651;BME280;11492;42.646;23.400;2023-02-04T06:40:51;94603.72;;;4.31;63.96
22651;BME280;11492;42.646;23.400;2023-02-04T06:43:18;94595.16;;;4.48;63.68
22651;BME280;11492;42.646;23.400;2023-02-04T06:45:43;94598.25;;;4.59;62.77
22651;BME280;11492;42.646;23.400;2023-02-04T06:48:09;94604.84;;;4.70;63.33
22651;BME280;11492;42.646;23.400;2023-02-04T06:50:34;94598.13;;;4.69;62.20
22651;BME280;11492;42.646;23.400;2023-02-04T06:53:00;94606.94;;;4.74;62.19
22651;BME280;11492;42.646;23.400;2023-02-04T06:55:25;94607.72;;;4.67;62.04
22651;BME280;11492;42.646;23.400;2023-02-04T06:57:51;94596.72;;;4.74;61.36
22651;BME280;11492;42.646;23.400;2023-02-04T07:00:16;94597.00;;;4.63;61.17
22651;BME280;11492;42.646;23.400;2023-02-04T07:02:41;94598.63;;;4.72;61.18
22651;BME280;11492;42.646;23.400;2023-02-04T07:05:08;94593.53;;;4.72;61.15
22651;BME280;11492;42.646;23.400;2023-02-04T07:07:33;94593.53;;;4.72;61.02
22651;BME280;11492;42.646;23.400;2023-02-04T07:09:59;94588.69;;;4.69;60.58
22651;BME280;11492;42.646;23.400;2023-02-04T07:12:25;94593.22;;;4.83;60.42
22651;BME280;11492;42.646;23.400;2023-02-04T07:14:50;94586.88;;;4.87;60.31
22651;BME280;11492;42.646;23.400;2023-02-04T07:17:15;94577.75;;;4.92;60.46
22651;BME280;11492;42.646;23.400;2023-02-04T09:46:13;94539.34;;;6.71;56.38
22651;BME280;11492;42.646;23.400;2023-02-04T09:48:41;94528.91;;;6.72;57.74
22651;BME280;11492;42.646;23.400;2023-02-04T09:51:07;94530.47;;;6.81;57.91
22651;BME280;11492;42.646;23.400;2023-02-04T09:53:33;94531.84;;;6.70;58.92
22651;BME280;11492;42.646;23.400;2023-02-04T09:56:00;94533.19;;;6.58;59.94
22651;BME280;11492;42.646;23.400;2023-02-04T09:58:30;94530.41;;;6.22;61.20
22651;BME280;11492;42.646;23.400;2023-02-04T10:01:00;94513.28;;;6.14;61.68
22651;BME280;11492;42.646;23.400;2023-02-04T10:03:30;94531.34;;;6.28;62.35
22651;BME280;11492;42.646;23.400;2023-02-04T10:05:55;94506.25;;;6.16;62.73
22651;BME280;11492;42.646;23.400;2023-02-04T10:08:28;94521.72;;;6.38;63.13
22651;BME280;11492;42.646;23.400;2023-02-04T10:10:54;94507.97;;;6.31;62.68
22651;BME280;11492;42.646;23.400;2023-02-04T10:13:23;94510.00;;;6.36;63.15
22651;BME280;11492;42.646;23.400;2023-02-04T10:15:52;94498.75;;;6.52;63.19
22651;BME280;11492;42.646;23.400;2023-02-04T10:18:29;94496.91;;;6.61;62.05
22651;BME280;11492;42.646;23.400;2023-02-04T10:23:31;94480.84;;;6.67;61.68
22651;BME280;11492;42.646;23.400;2023-02-04T10:25:56;94494.47;;;6.67;60.91
22651;BME280;11492;42.646;23.400;2023-02-04T10:28:34;94489.53;;;6.66;60.75
22651;BME280;11492;42.646;23.400;2023-02-04T10:31:00;94481.53;;;6.61;61.37
22651;BME280;11492;42.646;23.400;2023-02-04T10:33:25;94471.25;;;6.69;60.76
22651;BME280;11492;42.646;23.400;2023-02-04T10:35:52;94482.69;;;6.58;59.96
22651;BME280;11492;42.646;23.400;2023-02-04T10:38:18;94480.25;;;6.65;60.27
22651;BME280;11492;42.646;23.400;2023-02-04T10:40:45;94485.88;;;6.60;59.91
22651;BME280;11492;42.646;23.400;2023-02-04T10:43:21;94483.28;;;6.68;59.67
22651;BME280;11492;42.646;23.400;2023-02-04T10:46:03;94471.06;;;6.70;60.27
22651;BME280;11492;42.646;23.400;2023-02-04T10:48:29;94476.00;;;6.49;61.12
22651;BME280;11492;42.646;23.400;2023-02-04T10:51:03;94480.41;;;6.63;61.62
22651;BME280;11492;42.646;23.400;2023-02-04T10:53:28;94473.06;;;6.60;62.73
22651;BME280;11492;42.646;23.400;2023-02-04T10:56:18;94469.66;;;6.68;62.79
22651;BME280;11492;42.646;23.400;2023-02-04T10:58:45;94475.53;;;6.76;63.98
22651;BME280;11492;42.646;23.400;2023-02-04T11:01:12;94464.09;;;6.56;63.04
22651;BME280;11492;42.646;23.400;2023-02-04T11:03:39;94472.94;;;6.54;62.94
22651;BME280;11492;42.646;23.400;2023-02-04T11:06:10;94465.66;;;6.65;64.05
22651;BME280;11492;42.646;23.400;2023-02-04T11:08:38;94458.84;;;6.50;63.40
22651;BME280;11492;42.646;23.400;2023-02-04T11:11:11;94456.59;;;6.77;64.74
22651;BME280;11492;42.646;23.400;2023-02-04T11:26:47;94460.69;;;7.52;58.88
22651;BME280;11492;42.646;23.400;2023-02-04T11:31:57;94457.94;;;7.53;59.23
22651;BME280;11492;42.646;23.400;2023-02-04T11:34:26;94452.75;;;7.75;58.88
22651;BME280;11492;42.646;23.400;2023-02-04T11:39:47;94457.44;;;7.86;58.88
22651;BME280;11492;42.646;23.400;2023-02-04T11:42:23;94464.00;;;7.74;58.61
22651;BME280;11492;42.646;23.400;2023-02-04T11:45:02;94467.31;;;7.46;59.27
22651;BME280;11492;42.646;23.400;2023-02-04T11:47:35;94475.19;;;7.23;59.96
22651;BME280;11492;42.646;23.400;2023-02-04T11:50:12;94461.72;;;6.77;61.39
22651;BME280;11492;42.646;23.400;2023-02-04T11:52:39;94463.56;;;6.91;61.96
22651;BME280;11492;42.646;23.400;2023-02-04T11:55:04;94465.22;;;6.84;62.69
22651;BME280;11492;42.646;23.400;2023-02-04T11:57:37;94453.72;;;6.80;63.63
22651;BME280;11492;42.646;23.400;2023-02-04T12:00:03;94461.59;;;6.48;64.13
22651;BME280;11492;42.646;23.400;2023-02-04T12:02:41;94448.75;;;6.48;64.71
22651;BME280;11492;42.646;23.400;2023-02-04T12:05:17;94453.22;;;6.54;64.48
22651;BME280;11492;42.646;23.400;2023-02-04T12:07:44;94456.69;;;6.61;64.60
22651;BME280;11492;42.646;23.400;2023-02-04T12:12:50;94441.28;;;6.39;64.06
22651;BME280;11492;42.646;23.400;2023-02-04T12:15:37;94446.69;;;6.44;64.72
22651;BME280;11492;42.646;23.400;2023-02-04T12:18:07;94444.94;;;6.07;65.36
22651;BME280;11492;42.646;23.400;2023-02-04T12:20:34;94435.75;;;5.67;66.78
22651;BME280;11492;42.646;23.400;2023-02-04T12:22:59;94432.06;;;5.85;67.36
22651;BME280;11492;42.646;23.400;2023-02-04T12:25:25;94436.91;;;6.10;67.57
22651;BME280;11492;42.646;23.400;2023-02-04T12:27:52;94429.09;;;6.11;66.97
22651;BME280;11492;42.646;23.400;2023-02-04T12:30:20;94435.38;;;6.01;67.77
22651;BME280;11492;42.646;23.400;2023-02-04T12:32:45;94426.22;;;6.06;67.81
22651;BME280;11492;42.646;23.400;2023-02-04T12:35:10;94437.88;;;5.55;68.02
22651;BME280;11492;42.646;23.400;2023-02-04T12:37:36;94429.88;;;5.50;68.96
22651;BME280;11492;42.646;23.400;2023-02-04T12:40:01;94427.59;;;5.79;70.99
22651;BME280;11492;42.646;23.400;2023-02-04T12:42:27;94422.03;;;6.05;71.04
22651;BME280;11492;42.646;23.400;2023-02-04T12:44:52;94425.56;;;6.42;68.57
22651;BME280;11492;42.646;23.400;2023-02-04T12:47:17;94425.66;;;6.26;66.19
22651;BME280;11492;42.646;23.400;2023-02-04T12:49:43;94418.53;;;6.06;66.02
22651;BME280;11492;42.646;23.400;2023-02-04T12:52:08;94435.75;;;5.82;66.74
22651;BME280;11492;42.646;23.400;2023-02-04T12:54:34;94424.72;;;5.82;66.11
22651;BME280;11492;42.646;23.400;2023-02-04T12:56:59;94416.06;;;5.83;66.84
22651;BME280;11492;42.646;23.400;2023-02-04T12:59:27;94427.09;;;5.83;65.34
22651;BME280;11492;42.646;23.400;2023-02-04T13:01:52;94429.22;;;5.48;65.91
22651;BME280;11492;42.646;23.400;2023-02-04T13:04:18;94429.72;;;5.52;66.21
22651;BME280;11492;42.646;23.400;2023-02-04T13:06:43;94420.72;;;5.72;66.17
22651;BME280;11492;42.646;23.400;2023-02-04T13:09:09;94430.25;;;5.93;66.20
22651;BME280;11492;42.646;23.400;2023-02-04T13:11:34;94414.88;;;6.01;64.72
22651;BME280;11492;42.646;23.400;2023-02-04T13:14:00;94430.69;;;6.04;64.52
22651;BME280;11492;42.646;23.400;2023-02-04T13:16:25;94426.72;;;6.02;64.16
22651;BME280;11492;42.646;23.400;2023-02-04T13:18:51;94424.84;;;5.88;63.44
22651;BME280;11492;42.646;23.400;2023-02-04T13:21:16;94436.22;;;5.86;63.95
22651;BME280;11492;42.646;23.400;2023-02-04T13:23:42;94421.47;;;5.96;64.21
22651;BME280;11492;42.646;23.400;2023-02-04T13:26:07;94427.16;;;6.13;64.28
22651;BME280;11492;42.646;23.400;2023-02-04T13:28:34;94434.34;;;6.18;63.32
22651;BME280;11492;42.646;23.400;2023-02-04T13:30:59;94432.47;;;6.04;63.25
22651;BME280;11492;42.646;23.400;2023-02-04T13:33:25;94434.03;;;5.59;65.01
22651;BME280;11492;42.646;23.400;2023-02-04T13:35:50;94427.44;;;5.65;64.20
22651;BME280;11492;42.646;23.400;2023-02-04T13:38:16;94447.56;;;5.83;65.60
22651;BME280;11492;42.646;23.400;2023-02-04T13:40:41;94449.69;;;5.56;64.39
22651;BME280;11492;42.646;23.400;2023-02-04T13:43:06;94446.16;;;5.57;65.65
22651;BME280;11492;42.646;23.400;2023-02-04T13:45:32;94451.78;;;5.61;66.11
22651;BME280;11492;42.646;23.400;2023-02-04T13:47:57;94449.28;;;5.98;65.78
22651;BME280;11492;42.646;23.400;2023-02-04T13:50:23;94453.78;;;5.97;65.74
22651;BME280;11492;42.646;23.400;2023-02-04T13:52:48;94462.53;;;6.10;64.75
22651;BME280;11492;42.646;23.400;2023-02-04T13:55:14;94460.78;;;6.10;64.21
22651;BME280;11492;42.646;23.400;2023-02-04T13:57:39;94450.00;;;5.85;63.97
22651;BME280;11492;42.646;23.400;2023-02-04T14:00:05;94460.78;;;6.10;63.96
22651;BME280;11492;42.646;23.400;2023-02-04T14:02:31;94455.63;;;6.18;64.09
22651;BME280;11492;42.646;23.400;2023-02-04T14:04:57;94452.47;;;6.08;64.35
22651;BME280;11492;42.646;23.400;2023-02-04T14:07:23;94458.25;;;5.95;64.78
22651;BME280;11492;42.646;23.400;2023-02-04T14:09:48;94464.09;;;5.81;66.08
22651;BME280;11492;42.646;23.400;2023-02-04T14:12:14;94472.91;;;5.55;66.38
22651;BME280;11492;42.646;23.400;2023-02-04T14:14:40;94477.72;;;5.34;66.94
22651;BME280;11492;42.646;23.400;2023-02-04T14:17:05;94481.72;;;5.45;66.08
22651;BME280;11492;42.646;23.400;2023-02-04T14:19:30;94484.25;;;5.37;65.74
22651;BME280;11492;42.646;23.400;2023-02-04T14:21:56;94491.50;;;5.33;66.68
22651;BME280;11492;42.646;23.400;2023-02-04T14:24:22;94500.13;;;5.24;66.04
22651;BME280;11492;42.646;23.400;2023-02-04T14:26:48;94492.13;;;5.20;66.35
22651;BME280;11492;42.646;23.400;2023-02-04T14:29:13;94494.50;;;5.21;65.80
22651;BME280;11492;42.646;23.400;2023-02-04T14:31:39;94498.03;;;5.20;66.73
22651;BME280;11492;42.646;23.400;2023-02-04T14:34:04;94498.31;;;5.01;66.46
22651;BME280;11492;42.646;23.400;2023-02-04T14:36:30;94506.94;;;4.85;67.52
22651;BME280;11492;42.646;23.400;2023-02-04T14:38:55;94518.38;;;4.57;68.30
22651;BME280;11492;42.646;23.400;2023-02-04T14:41:21;94525.53;;;4.46;68.60
22651;BME280;11492;42.646;23.400;2023-02-04T14:43:46;94519.97;;;4.58;67.95
22651;BME280;11492;42.646;23.400;2023-02-04T14:46:12;94508.47;;;4.54;67.50
22651;BME280;11492;42.646;23.400;2023-02-04T14:48:38;94510.38;;;4.52;68.34
22651;BME280;11492;42.646;23.400;2023-02-04T14:51:03;94523.84;;;4.62;67.89
22651;BME280;11492;42.646;23.400;2023-02-04T14:53:29;94524.16;;;4.75;68.29
22651;BME280;11492;42.646;23.400;2023-02-04T14:55:55;94535.94;;;4.60;66.72
22651;BME280;11492;42.646;23.400;2023-02-04T14:58:20;94539.84;;;4.80;69.24
22651;BME280;11492;42.646;23.400;2023-02-04T15:00:46;94544.28;;;4.70;66.74
22651;BME280;11492;42.646;23.400;2023-02-04T15:03:11;94557.81;;;4.55;66.46
22651;BME280;11492;42.646;23.400;2023-02-04T15:05:37;94544.56;;;4.51;65.48
22651;BME280;11492;42.646;23.400;2023-02-04T15:08:02;94557.63;;;4.48;65.40
22651;BME280;11492;42.646;23.400;2023-02-04T15:10:29;94551.59;;;4.57;65.75
22651;BME280;11492;42.646;23.400;2023-02-04T15:12:54;94551.94;;;4.62;65.18
22651;BME280;11492;42.646;23.400;2023-02-04T15:15:20;94562.50;;;4.67;64.95
22651;BME280;11492;42.646;23.400;2023-02-04T15:17:45;94550.53;;;4.68;64.96
22651;BME280;11492;42.646;23.400;2023-02-04T15:20:11;94555.13;;;4.64;64.48
22651;BME280;11492;42.646;23.400;2023-02-04T15:22:37;94576.84;;;4.60;63.81
22651;BME280;11492;42.646;23.400;2023-02-04T15:25:03;94573.94;;;4.47;63.82
22651;BME280;11492;42.646;23.400;2023-02-04T15:27:29;94590.88;;;4.23;63.25
22651;BME280;11492;42.646;23.400;2023-02-04T15:29:54;94576.94;;;4.10;63.86
22651;BME280;11492;42.646;23.400;2023-02-04T15:32:20;94576.31;;;4.16;63.37
22651;BME280;11492;42.646;23.400;2023-02-04T15:34:45;94591.69;;;4.24;63.65
22651;BME280;11492;42.646;23.400;2023-02-04T15:37:11;94585.13;;;3.97;63.66
22651;BME280;11492;42.646;23.400;2023-02-04T15:39:37;94594.13;;;4.08;63.67
22651;BME280;11492;42.646;23.400;2023-02-04T15:42:03;94596.69;;;4.08;64.78
22651;BME280;11492;42.646;23.400;2023-02-04T15:44:28;94602.97;;;3.89;64.38
22651;BME280;11492;42.646;23.400;2023-02-04T15:46:53;94607.31;;;3.96;65.55